Airfield :
LOGIN :

Register | Disclaimer

   EN    FR    IT 

 










Legend :    VFR   Marginal VFR   IFR   Intensive IFR   Very Intensive IFR
Visi :
Ceiling :
>= 8 km
>= 3000ft
5 to 8 km
1000 to 3000 ft
1500m to 5 km
500 to 1000 ft
800 to 1500m
200 to 500 ft
< 800m
< 200 ft
Symbols :   Thunderstorms  Fog  Heavy snow  Heavy precipitations  Wind > 20 kt
SIGMETs :     Misc.  Thunderstorms  Icing  Turbulence  Mountain Waves  Volcanic Ashes







- Airport Elevation : 2425 ft


ETHA - Altenstadt Army

CURRENT METAR :
  • 120720Z 25005KT 9999 BKN050 M03/M06 Q1021 BLACKBLU BLU TEMPO WHT

EXPIRED METARs :
  • 120620Z 24005KT 9999 BKN050 BKN080 M04/M07 Q1021 BLACKBLU BLU
  • 120520Z 30002KT 9999 SCT050 BKN080 M03/M05 Q1020 BLACKBLU BLU

TAF TAF ETHA
Valid from the 12 at 06:00 until the 12 at 15:00 UTC


120520Z 1206/1215 27005KT 9999 NSW FEW020 BKN040
TEMPO 1209/1215 30007KT 6000 -SN BKN020 BKN040
No reported NOTAMs for that airfield.



MET'MAP, your aeronautical weather chart ! - Copyright ORBIFLY December 2007 - Disclaimer

ORBIFLY MET'MAP TEAM :

Programming & Development : Alexandra Zaïnal
Concept & Development : Baudouin d'Aumeries
Co-Development & Prog : Marc-Olivier Méhu
Technical & hardware support : Manuel Goepfert

Contact : metmap@orbifly.com




SOURCES & CREDITS :

   NOAA